Time;durP1;ratioP1;P1;durP2;ratioP2;P2;SDS_P1;SDS_P2;PMS_P1;PMS_P2;Temp;Humidity;BMP_temperature;BMP_pressure;BME280_temperature;BME280_humidity;BME280_pressure;Samples;Min_cycle;Max_cycle;Signal;HPM_P1;HPM_P2
2024/03/07 00:00:22;;;;;;;11.32;4.53;;;-3.00;60.70;;;;;;4947235;29;20027;-83
2024/03/07 00:02:49;;;;;;;8.98;3.92;;;-3.00;60.70;;;;;;4952327;28;20527;-84
2024/03/07 00:05:16;;;;;;;8.52;3.63;;;-3.10;60.80;;;;;;4948017;28;20050;-84
2024/03/07 00:07:44;;;;;;;8.45;4.05;;;-3.10;60.80;;;;;;4954239;28;20051;-83
2024/03/07 00:10:10;;;;;;;9.75;4.00;;;-3.00;61.00;;;;;;4941091;29;20031;-82
2024/03/07 00:12:38;;;;;;;6.43;3.83;;;-3.00;60.80;;;;;;4945623;29;20029;-82
2024/03/07 00:15:07;;;;;;;9.77;4.28;;;-3.00;60.80;;;;;;4948137;28;20043;-83
2024/03/07 00:17:34;;;;;;;9.23;3.67;;;-3.00;60.80;;;;;;4951729;29;20050;-82
2024/03/07 00:20:00;;;;;;;6.57;3.92;;;-3.10;60.90;;;;;;4941532;29;20020;-82
2024/03/07 00:22:29;;;;;;;9.10;4.05;;;-3.10;61.00;;;;;;4949943;29;20028;-82
2024/03/07 00:24:56;;;;;;;6.97;3.80;;;-3.10;61.00;;;;;;4958637;28;20381;-82
2024/03/07 00:27:22;;;;;;;10.93;4.93;;;-3.10;61.10;;;;;;4952743;28;20027;-80
2024/03/07 00:29:56;;;;;;;8.93;4.00;;;-3.00;61.00;;;;;;4951857;29;20079;-82
2024/03/07 00:32:23;;;;;;;7.03;3.88;;;-3.00;60.90;;;;;;4953233;29;20102;-82
2024/03/07 00:34:50;;;;;;;10.85;4.55;;;-3.00;60.70;;;;;;4946341;28;20078;-83
2024/03/07 00:37:16;;;;;;;9.48;4.95;;;-3.10;60.70;;;;;;4946494;29;20124;-84
2024/03/07 00:39:43;;;;;;;6.70;4.13;;;-3.10;60.80;;;;;;4950793;28;20489;-84
2024/03/07 00:42:09;;;;;;;9.60;4.68;;;-3.10;60.80;;;;;;4958489;28;20438;-81
2024/03/07 00:44:35;;;;;;;10.95;4.35;;;-3.00;60.80;;;;;;4947770;28;20031;-82
2024/03/07 00:47:02;;;;;;;12.23;6.97;;;-3.00;60.80;;;;;;4952838;28;20070;-82
2024/03/07 00:49:29;;;;;;;9.73;5.28;;;-3.00;61.10;;;;;;4953187;29;20082;-82
2024/03/07 00:51:55;;;;;;;10.30;4.63;;;-3.10;61.10;;;;;;4944757;28;20028;-84
2024/03/07 00:54:22;;;;;;;9.40;4.93;;;-3.00;61.00;;;;;;4951978;29;20375;-83
2024/03/07 00:56:49;;;;;;;14.30;5.47;;;-3.10;61.20;;;;;;4946488;28;20028;-82
2024/03/07 00:59:18;;;;;;;8.82;4.65;;;-3.10;61.30;;;;;;4947540;29;20115;-82
2024/03/07 01:01:44;;;;;;;12.02;5.07;;;-3.10;61.40;;;;;;4936216;29;20485;-83
2024/03/07 01:04:10;;;;;;;11.98;4.45;;;-3.20;61.40;;;;;;4949393;29;20031;-84
2024/03/07 01:06:36;;;;;;;11.52;4.38;;;-3.20;61.50;;;;;;4953512;28;20504;-83
2024/03/07 01:09:02;;;;;;;11.93;6.47;;;-3.20;61.30;;;;;;4953195;28;20046;-83
2024/03/07 01:11:29;;;;;;;7.30;3.97;;;-3.20;61.00;;;;;;4951394;29;20035;-81
2024/03/07 01:13:55;;;;;;;11.07;4.90;;;-3.20;61.00;;;;;;4968866;28;20269;-82
2024/03/07 01:16:21;;;;;;;10.13;5.45;;;-3.20;61.20;;;;;;4952931;28;20015;-81
2024/03/07 01:18:49;;;;;;;10.00;4.65;;;-3.20;61.30;;;;;;4947007;28;20070;-83
2024/03/07 01:21:15;;;;;;;20.27;7.28;;;-3.20;61.40;;;;;;4940515;28;20019;-84
2024/03/07 01:23:41;;;;;;;10.18;5.30;;;-3.20;61.40;;;;;;4945616;29;20044;-82
2024/03/07 01:26:08;;;;;;;7.90;5.07;;;-3.30;61.40;;;;;;4943033;28;20430;-82
2024/03/07 01:28:34;;;;;;;;;;;-3.30;61.60;;;;;;4952852;28;20035;-83
2024/03/07 01:31:00;;;;;;;7.82;3.90;;;-3.30;61.50;;;;;;4940966;29;19914;-82
2024/03/07 01:33:27;;;;;;;19.15;6.90;;;-3.30;61.60;;;;;;4942313;29;20098;-83
2024/03/07 01:35:53;;;;;;;12.32;5.93;;;-3.30;61.90;;;;;;4953144;28;20087;-83
2024/03/07 01:38:18;;;;;;;10.27;4.90;;;-3.40;62.00;;;;;;4949391;29;20039;-81
2024/03/07 01:40:45;;;;;;;12.77;5.78;;;-3.40;62.30;;;;;;4952473;28;20051;-82
2024/03/07 01:43:11;;;;;;;7.00;4.80;;;-3.40;62.40;;;;;;4969944;28;20035;-82
2024/03/07 01:45:38;;;;;;;8.63;5.60;;;-3.50;62.50;;;;;;4953420;29;20289;-82
2024/03/07 01:48:10;;;;;;;10.57;4.50;;;-3.50;62.50;;;;;;4954124;28;20042;-81
2024/03/07 01:50:39;;;;;;;10.77;4.93;;;-3.50;62.60;;;;;;4935972;29;20020;-83
2024/03/07 01:53:11;;;;;;;14.27;5.05;;;-3.50;62.50;;;;;;4936676;29;20043;-81
2024/03/07 01:55:37;;;;;;;9.25;5.53;;;-3.50;62.40;;;;;;4952967;28;20035;-83
2024/03/07 01:58:05;;;;;;;12.32;5.07;;;-3.50;62.30;;;;;;4950207;29;20050;-81
2024/03/07 02:00:31;;;;;;;8.50;4.00;;;-3.50;62.40;;;;;;4952348;28;20051;-82
2024/03/07 02:02:57;;;;;;;9.35;6.32;;;-3.60;62.40;;;;;;4953904;29;20062;-82
2024/03/07 02:05:24;;;;;;;10.85;5.60;;;-3.60;62.60;;;;;;4951776;28;20054;-82
2024/03/07 02:07:51;;;;;;;9.98;4.57;;;-3.60;62.70;;;;;;4935386;29;20040;-82
2024/03/07 02:10:17;;;;;;;13.50;5.00;;;-3.70;62.70;;;;;;4937360;29;20042;-81
2024/03/07 02:12:45;;;;;;;12.35;5.07;;;-3.70;62.70;;;;;;4953459;29;20020;-81
2024/03/07 02:15:10;;;;;;;11.07;6.97;;;-3.70;62.70;;;;;;4959693;28;20047;-82
2024/03/07 02:17:37;;;;;;;9.43;6.18;;;-3.70;62.80;;;;;;4958670;28;20066;-82
2024/03/07 02:20:04;;;;;;;9.38;4.70;;;-3.60;62.80;;;;;;4946816;28;20032;-81
2024/03/07 02:22:30;;;;;;;10.60;5.10;;;-3.70;62.90;;;;;;4950998;28;20142;-81
2024/03/07 02:24:56;;;;;;;12.38;5.65;;;-3.60;63.00;;;;;;4951866;28;20031;-81
2024/03/07 02:27:22;;;;;;;11.23;5.43;;;-3.70;63.00;;;;;;4952218;28;20034;-81
2024/03/07 02:29:49;;;;;;;11.98;4.75;;;-3.70;63.10;;;;;;4953997;29;20497;-81
2024/03/07 02:32:14;;;;;;;14.63;8.20;;;-3.70;63.20;;;;;;4955395;28;20023;-80
2024/03/07 02:34:40;;;;;;;8.10;4.90;;;-3.70;63.20;;;;;;4956093;29;20038;-80
2024/03/07 02:37:09;;;;;;;10.93;5.03;;;-3.70;63.20;;;;;;4960077;29;20036;-81
2024/03/07 02:39:35;;;;;;;11.70;5.30;;;-3.70;63.30;;;;;;4965746;28;20038;-81
2024/03/07 02:42:02;;;;;;;6.40;4.65;;;-3.80;63.20;;;;;;4952926;29;20054;-80
2024/03/07 02:44:28;;;;;;;12.05;4.40;;;-3.80;63.30;;;;;;4948872;28;20028;-82
2024/03/07 02:46:54;;;;;;;7.80;5.18;;;-3.80;63.40;;;;;;4953569;28;20024;-82
2024/03/07 02:49:21;;;;;;;11.13;4.72;;;-3.80;63.40;;;;;;4967587;28;20460;-81
2024/03/07 02:51:47;;;;;;;6.28;3.80;;;-3.70;63.50;;;;;;4956198;28;20019;-81
2024/03/07 02:54:13;;;;;;;11.32;5.57;;;-3.80;63.20;;;;;;4943767;29;20078;-81
2024/03/07 02:56:39;;;;;;;9.68;4.95;;;-3.70;63.30;;;;;;4956270;28;20066;-83
2024/03/07 02:59:06;;;;;;;6.72;3.83;;;-3.70;63.20;;;;;;4957138;28;20622;-80
2024/03/07 03:01:32;;;;;;;9.15;3.90;;;-3.70;63.20;;;;;;4956336;29;20073;-79
2024/03/07 03:03:58;;;;;;;10.27;3.95;;;-3.80;63.10;;;;;;4946090;28;20036;-81
2024/03/07 03:06:24;;;;;;;11.65;4.72;;;-3.80;63.90;;;;;;4946934;28;20478;-80
2024/03/07 03:08:50;;;;;;;7.82;5.22;;;-3.80;63.30;;;;;;4942538;28;20036;-82
2024/03/07 03:11:16;;;;;;;8.38;5.03;;;-3.70;63.20;;;;;;4947360;28;20028;-81
2024/03/07 03:13:42;;;;;;;12.60;4.53;;;-3.80;63.10;;;;;;4944896;29;20036;-80
2024/03/07 03:16:09;;;;;;;8.73;4.43;;;-3.80;63.10;;;;;;4955696;29;20392;-82
2024/03/07 03:18:35;;;;;;;9.82;4.90;;;-3.80;63.00;;;;;;4946865;28;20108;-81
2024/03/07 03:21:02;;;;;;;16.05;6.35;;;-3.80;63.00;;;;;;4954168;29;20632;-81
2024/03/07 03:23:28;;;;;;;7.83;4.43;;;-3.80;63.00;;;;;;4948199;28;20078;-82
2024/03/07 03:25:55;;;;;;;9.50;5.10;;;-3.90;63.10;;;;;;4941882;29;20027;-81
2024/03/07 03:28:21;;;;;;;10.45;4.45;;;-3.90;63.40;;;;;;4949523;29;20294;-81
2024/03/07 03:30:48;;;;;;;10.18;4.63;;;-4.00;63.60;;;;;;4945592;28;20028;-80
2024/03/07 03:33:15;;;;;;;14.27;5.20;;;-3.90;63.70;;;;;;4949838;28;20093;-81
2024/03/07 03:35:41;;;;;;;10.40;4.15;;;-3.90;64.20;;;;;;4963023;28;20030;-81
2024/03/07 03:38:08;;;;;;;15.77;4.67;;;-3.90;63.60;;;;;;4945790;29;20082;-80
2024/03/07 03:40:34;;;;;;;10.15;5.32;;;-3.90;63.70;;;;;;4965525;28;20019;-80
2024/03/07 03:43:03;;;;;;;8.30;5.68;;;-3.90;64.00;;;;;;4945226;29;20020;-80
2024/03/07 03:45:29;;;;;;;9.52;5.57;;;-3.90;64.20;;;;;;4967450;28;20425;-81
2024/03/07 03:47:55;;;;;;;15.55;5.43;;;-3.90;64.40;;;;;;4955929;28;20057;-80
2024/03/07 03:50:24;;;;;;;12.15;5.88;;;-3.90;64.80;;;;;;4958337;28;20038;-82
2024/03/07 03:52:50;;;;;;;14.48;6.55;;;-3.90;65.10;;;;;;4949839;28;20330;-81
2024/03/07 03:55:16;;;;;;;10.20;6.53;;;-3.90;65.40;;;;;;4953073;28;20078;-82
2024/03/07 03:57:43;;;;;;;12.23;7.07;;;-3.90;65.30;;;;;;4952370;28;20027;-84
2024/03/07 04:00:12;;;;;;;;;;;-4.00;65.20;;;;;;4963702;28;20028;-83
2024/03/07 04:02:42;;;;;;;12.90;6.38;;;-3.90;65.20;;;;;;4960861;28;19997;-83
2024/03/07 04:05:10;;;;;;;13.15;7.10;;;-4.00;65.20;;;;;;4955273;28;20027;-82
2024/03/07 04:07:36;;;;;;;12.60;7.05;;;-4.10;65.40;;;;;;4954602;28;20375;-83
2024/03/07 04:10:03;;;;;;;18.08;7.57;;;-4.10;65.60;;;;;;4954374;28;20032;-82
2024/03/07 04:12:29;;;;;;;11.95;6.43;;;-4.10;65.90;;;;;;4955373;28;20023;-83
2024/03/07 04:14:55;;;;;;;13.50;7.07;;;-4.10;66.00;;;;;;4952602;29;20055;-81
2024/03/07 04:17:21;;;;;;;13.77;6.17;;;-4.10;66.20;;;;;;4952903;28;20051;-81
2024/03/07 04:19:48;;;;;;;11.88;5.93;;;-4.20;67.00;;;;;;4947206;28;20083;-84
2024/03/07 04:22:14;;;;;;;11.25;6.55;;;-4.10;66.60;;;;;;4951442;29;20106;-81
2024/03/07 04:24:40;;;;;;;14.75;6.57;;;-4.20;66.50;;;;;;4955546;28;20538;-81
2024/03/07 04:27:06;;;;;;;11.00;5.95;;;-4.20;66.30;;;;;;4953694;29;20070;-83
2024/03/07 04:29:33;;;;;;;12.02;6.28;;;-4.20;66.20;;;;;;4953707;29;20035;-82
2024/03/07 04:32:00;;;;;;;10.45;6.25;;;-4.20;66.20;;;;;;4966008;28;20085;-82
2024/03/07 04:34:27;;;;;;;17.08;7.05;;;-4.20;66.00;;;;;;4946447;28;20032;-80
2024/03/07 04:36:53;;;;;;;7.05;5.20;;;-4.20;65.90;;;;;;4950989;28;20154;-82
2024/03/07 04:39:32;;;;;;;22.48;6.65;;;-4.10;65.80;;;;;;4951066;28;20480;-82
2024/03/07 04:42:02;;;;;;;15.48;5.47;;;-4.10;65.60;;;;;;4947713;28;20027;-80
2024/03/07 04:44:29;;;;;;;13.65;5.63;;;-4.10;65.30;;;;;;4956260;28;20129;-84
2024/03/07 04:46:57;;;;;;;12.63;6.05;;;-4.10;65.00;;;;;;4957961;28;20413;-81
2024/03/07 04:49:27;;;;;;;14.32;6.40;;;-4.00;65.00;;;;;;4954188;29;20047;-81
2024/03/07 04:51:58;;;;;;;17.63;6.63;;;-4.00;64.80;;;;;;4949535;28;20027;-81
2024/03/07 04:54:25;;;;;;;11.13;6.13;;;-4.00;64.70;;;;;;4954523;28;20674;-83
2024/03/07 04:56:51;;;;;;;13.38;6.85;;;-3.90;64.70;;;;;;4949283;28;20022;-84
2024/03/07 04:59:18;;;;;;;15.27;6.10;;;-3.90;64.80;;;;;;4946050;28;20068;-82
2024/03/07 05:01:45;;;;;;;13.27;6.57;;;-3.90;64.90;;;;;;4949435;29;20811;-84
2024/03/07 05:04:15;;;;;;;10.70;6.93;;;-3.90;65.00;;;;;;4954885;28;20450;-83
2024/03/07 05:06:41;;;;;;;10.90;6.07;;;-3.90;64.90;;;;;;4953741;28;20114;-83
2024/03/07 05:09:09;;;;;;;15.90;8.38;;;-3.90;64.80;;;;;;4953853;29;20481;-81
2024/03/07 05:11:38;;;;;;;26.08;5.65;;;-3.80;64.80;;;;;;4955361;28;20086;-81
2024/03/07 05:14:03;;;;;;;14.68;5.35;;;-3.80;64.80;;;;;;4953194;28;20023;-82
2024/03/07 05:16:31;;;;;;;12.25;6.53;;;-3.80;64.90;;;;;;4957168;28;20087;-82
2024/03/07 05:19:00;;;;;;;13.18;6.30;;;-3.80;64.90;;;;;;4948691;28;20019;-83
2024/03/07 05:23:58;;;;;;;11.35;6.25;;;-3.70;65.10;;;;;;4938858;29;20027;-82
2024/03/07 05:26:26;;;;;;;10.77;7.30;;;-3.70;65.10;;;;;;4938126;29;20106;-83
2024/03/07 05:28:52;;;;;;;10.43;6.15;;;-3.70;65.00;;;;;;4948263;28;20035;-83
2024/03/07 05:31:19;;;;;;;13.77;6.03;;;-3.60;65.70;;;;;;4953360;28;20046;-82
2024/03/07 05:33:45;;;;;;;12.18;5.28;;;-3.60;64.90;;;;;;4945059;28;20053;-82
2024/03/07 05:36:17;;;;;;;15.93;6.22;;;-3.60;64.70;;;;;;4938748;28;20110;-83
2024/03/07 05:38:44;;;;;;;10.63;6.05;;;-3.60;64.70;;;;;;4945340;28;20446;-83
2024/03/07 05:41:13;;;;;;;10.52;5.75;;;-3.50;64.60;;;;;;4941338;28;20019;-83
2024/03/07 05:43:40;;;;;;;13.85;6.43;;;-3.50;64.30;;;;;;4942799;29;20102;-83
2024/03/07 05:46:06;;;;;;;11.33;6.27;;;-3.50;64.20;;;;;;4957185;29;20035;-82
2024/03/07 05:48:33;;;;;;;9.50;5.43;;;-3.50;64.30;;;;;;4954877;28;20355;-83
2024/03/07 05:51:00;;;;;;;9.83;5.87;;;-3.50;64.00;;;;;;4953422;28;20030;-83
2024/03/07 05:53:26;;;;;;;13.77;5.50;;;-3.40;63.60;;;;;;4953697;28;20288;-82
2024/03/07 05:55:52;;;;;;;15.93;5.60;;;-3.30;63.50;;;;;;4946970;28;20036;-82
2024/03/07 05:58:19;;;;;;;10.73;4.95;;;-3.20;63.00;;;;;;4944933;29;20610;-82
2024/03/07 06:00:51;;;;;;;;;;;-3.20;62.80;;;;;;4944295;29;20526;-85
2024/03/07 06:03:21;;;;;;;21.50;6.03;;;-3.20;62.80;;;;;;4946306;28;20649;-81
2024/03/07 06:05:48;;;;;;;12.45;5.40;;;-3.10;62.90;;;;;;4945009;29;20036;-85
2024/03/07 06:08:21;;;;;;;8.73;5.47;;;-3.10;63.00;;;;;;4946457;29;20051;-79
2024/03/07 06:10:47;;;;;;;10.55;5.15;;;-3.00;63.00;;;;;;4949940;28;20118;-84
2024/03/07 06:13:18;;;;;;;10.15;5.47;;;-3.00;62.60;;;;;;4948063;29;20460;-82
2024/03/07 06:15:45;;;;;;;12.82;6.00;;;-2.90;62.20;;;;;;4952756;28;20039;-80
2024/03/07 06:18:13;;;;;;;8.67;5.10;;;-2.80;61.80;;;;;;4948526;28;20039;-81
2024/03/07 06:20:40;;;;;;;19.73;5.57;;;-2.70;61.50;;;;;;4946712;28;20035;-82
2024/03/07 06:23:06;;;;;;;;;;;-2.70;61.60;;;;;;4939154;29;20059;-79
2024/03/07 06:25:34;;;;;;;12.65;5.07;;;-2.60;61.40;;;;;;4943888;29;19957;-81
2024/03/07 06:28:09;;;;;;;13.60;6.53;;;-2.60;61.20;;;;;;4949343;28;20063;-80
2024/03/07 06:30:43;;;;;;;8.10;5.10;;;-2.60;61.10;;;;;;4941692;29;20050;-83
2024/03/07 06:33:12;;;;;;;13.75;4.68;;;-2.50;61.00;;;;;;4943077;29;20030;-81
2024/03/07 06:35:39;;;;;;;17.73;6.88;;;-2.40;60.90;;;;;;4944709;29;20039;-81
2024/03/07 06:38:06;;;;;;;15.40;5.65;;;-2.30;61.00;;;;;;4941890;28;20056;-81
2024/03/07 06:40:36;;;;;;;12.70;4.70;;;-2.30;61.10;;;;;;4947288;29;20029;-81
2024/03/07 06:43:06;;;;;;;18.65;5.65;;;-2.20;61.00;;;;;;4942424;29;20254;-83
2024/03/07 06:45:33;;;;;;;8.80;4.97;;;-2.20;60.70;;;;;;4950031;29;20054;-80
2024/03/07 06:47:59;;;;;;;8.23;4.77;;;-2.10;60.40;;;;;;4960361;28;20019;-82
2024/03/07 06:50:28;;;;;;;11.45;5.55;;;-2.10;60.00;;;;;;4955995;29;20090;-83
2024/03/07 06:52:55;;;;;;;18.52;6.00;;;-2.00;59.80;;;;;;4953674;29;20022;-81
2024/03/07 06:55:21;;;;;;;8.65;4.75;;;-2.00;59.80;;;;;;4959934;28;20023;-82
2024/03/07 06:57:48;;;;;;;12.98;5.63;;;-1.90;60.20;;;;;;4960080;29;20034;-82
2024/03/07 07:00:21;;;;;;;9.40;6.25;;;-1.90;60.20;;;;;;4959789;28;20023;-81
2024/03/07 07:02:50;;;;;;;8.13;4.22;;;-1.80;60.40;;;;;;4960153;28;20027;-82
2024/03/07 07:05:18;;;;;;;7.53;3.55;;;-1.80;60.40;;;;;;4959693;28;20015;-81
2024/03/07 07:07:46;;;;;;;7.00;4.28;;;-1.70;60.40;;;;;;4959747;28;20047;-81
2024/03/07 07:10:23;;;;;;;8.77;4.53;;;-1.60;60.30;;;;;;4958359;28;20052;-80
2024/03/07 07:12:50;;;;;;;11.38;4.05;;;-1.60;60.50;;;;;;4960106;28;20429;-81
2024/03/07 07:15:20;;;;;;;8.05;4.13;;;-1.50;60.30;;;;;;4959976;28;20019;-82
2024/03/07 07:17:50;;;;;;;11.73;4.65;;;-1.50;60.80;;;;;;4950923;29;20463;-82
2024/03/07 07:20:17;;;;;;;6.95;4.15;;;-1.40;60.00;;;;;;4954782;28;20437;-81
2024/03/07 07:22:47;;;;;;;10.48;4.75;;;-1.30;60.00;;;;;;4959756;28;20066;-80
2024/03/07 07:25:16;;;;;;;11.30;4.55;;;-1.20;60.00;;;;;;4959614;28;20071;-82
2024/03/07 07:27:47;;;;;;;9.32;4.43;;;-1.20;60.00;;;;;;4959831;29;20034;-82
2024/03/07 07:30:15;;;;;;;10.65;4.47;;;-1.00;60.00;;;;;;4960706;29;20050;-80
2024/03/07 07:32:42;;;;;;;9.60;3.80;;;-0.90;59.80;;;;;;4959666;29;20044;-81
2024/03/07 07:35:11;;;;;;;10.82;4.55;;;-0.80;59.70;;;;;;4953140;29;20032;-80
2024/03/07 07:37:55;;;;;;;8.25;4.00;;;-0.70;59.60;;;;;;4956748;29;20074;-81
2024/03/07 07:40:22;;;;;;;7.57;4.22;;;-0.50;59.60;;;;;;4951586;29;20039;-82
2024/03/07 07:42:51;;;;;;;13.80;4.00;;;-0.30;59.50;;;;;;4953581;29;20023;-81
2024/03/07 07:45:18;;;;;;;8.50;3.47;;;0.90;59.70;;;;;;4955647;28;20363;-80
2024/03/07 07:47:50;;;;;;;8.48;3.78;;;2.60;57.50;;;;;;4956711;28;20536;-82
2024/03/07 07:50:20;;;;;;;9.15;4.05;;;4.30;55.50;;;;;;4956485;28;20441;-81
2024/03/07 07:52:57;;;;;;;11.20;5.18;;;5.60;52.20;;;;;;4956422;28;20023;-82
2024/03/07 07:55:27;;;;;;;13.63;5.07;;;6.80;49.60;;;;;;4956313;28;20035;-81
2024/03/07 07:57:58;;;;;;;35.92;8.98;;;7.60;48.00;;;;;;4951763;29;20031;-82
2024/03/07 08:00:28;;;;;;;17.05;6.40;;;8.30;46.90;;;;;;4955627;29;20020;-81
2024/03/07 08:03:03;;;;;;;8.75;4.65;;;8.80;45.90;;;;;;4956168;28;20481;-80
2024/03/07 08:05:34;;;;;;;15.20;5.85;;;9.30;44.50;;;;;;4955964;28;20027;-81
2024/03/07 08:08:06;;;;;;;12.55;6.03;;;9.80;44.00;;;;;;4956753;28;20039;-79
2024/03/07 08:10:36;;;;;;;11.93;5.32;;;10.60;43.30;;;;;;4952824;29;20047;-82
2024/03/07 08:13:03;;;;;;;12.38;4.75;;;11.20;41.50;;;;;;4946745;29;20034;-80
2024/03/07 08:15:30;;;;;;;6.53;4.20;;;11.30;40.70;;;;;;4956352;28;20050;-82
2024/03/07 08:17:57;;;;;;;18.70;5.70;;;11.40;39.90;;;;;;4955620;28;20043;-81
2024/03/07 08:20:25;;;;;;;12.77;4.32;;;11.50;40.50;;;;;;4955793;28;20031;-82
2024/03/07 08:22:52;;;;;;;8.02;4.55;;;12.20;40.00;;;;;;4956217;28;20027;-81
2024/03/07 08:25:23;;;;;;;15.55;5.22;;;12.30;39.20;;;;;;4955671;28;20051;-81
2024/03/07 08:27:51;;;;;;;14.35;5.72;;;12.70;38.90;;;;;;4955544;28;20038;-82
2024/03/07 08:30:18;;;;;;;8.45;4.30;;;13.40;37.80;;;;;;4955555;28;20366;-81
2024/03/07 08:32:51;;;;;;;14.37;4.73;;;;;;;;;;4955378;28;20027;-83
2024/03/07 08:35:17;;;;;;;13.48;5.43;;;14.60;38.00;;;;;;4955363;28;20593;-83
2024/03/07 08:37:53;;;;;;;9.52;4.25;;;15.10;36.90;;;;;;4950672;29;20114;-80
2024/03/07 08:40:23;;;;;;;10.40;3.90;;;15.70;35.50;;;;;;4947580;29;20101;-82
2024/03/07 08:42:51;;;;;;;11.40;4.63;;;16.10;33.80;;;;;;4955309;28;20473;-81
2024/03/07 08:45:20;;;;;;;8.70;4.20;;;15.50;34.30;;;;;;4955133;28;20623;-80
2024/03/07 08:47:48;;;;;;;10.35;4.63;;;15.30;34.10;;;;;;4955468;28;20106;-80
2024/03/07 08:50:16;;;;;;;12.02;5.90;;;15.80;34.20;;;;;;4955274;28;20469;-82
2024/03/07 08:52:43;;;;;;;5.97;3.67;;;16.60;34.20;;;;;;4953771;29;20031;-80
2024/03/07 08:55:12;;;;;;;8.93;4.38;;;17.20;32.70;;;;;;4954955;28;20035;-81
2024/03/07 08:57:38;;;;;;;6.70;4.50;;;17.40;32.90;;;;;;4954967;28;20019;-81
2024/03/07 09:00:08;;;;;;;8.45;3.47;;;17.90;32.00;;;;;;4969559;28;20460;-83
2024/03/07 09:02:38;;;;;;;11.02;4.00;;;17.80;31.60;;;;;;4950870;29;20556;-85
2024/03/07 09:05:05;;;;;;;9.20;3.22;;;17.30;31.70;;;;;;4949634;29;20023;-82
2024/03/07 09:07:32;;;;;;;10.77;3.97;;;17.00;31.60;;;;;;4955299;28;20049;-83
2024/03/07 09:09:58;;;;;;;11.63;4.85;;;16.70;32.10;;;;;;4956360;28;20452;-82
2024/03/07 09:12:27;;;;;;;11.10;5.07;;;16.60;32.20;;;;;;4954990;28;20077;-83
2024/03/07 09:14:56;;;;;;;10.65;5.07;;;16.60;31.80;;;;;;4950275;29;20566;-82
2024/03/07 09:17:21;;;;;;;8.60;4.80;;;16.10;32.50;;;;;;4953172;29;20019;-83
2024/03/07 09:19:47;;;;;;;11.75;4.10;;;16.70;32.60;;;;;;4954792;28;20045;-81
2024/03/07 09:22:13;;;;;;;10.20;4.75;;;17.30;31.50;;;;;;4960708;29;20136;-83
2024/03/07 09:24:39;;;;;;;7.72;4.13;;;17.40;31.20;;;;;;4955968;29;20031;-82
2024/03/07 09:27:05;;;;;;;10.88;4.20;;;16.70;31.30;;;;;;4954430;28;20358;-83
2024/03/07 09:29:31;;;;;;;7.97;3.90;;;16.80;31.90;;;;;;4954483;28;20045;-80
2024/03/07 09:31:57;;;;;;;7.82;4.13;;;17.60;31.60;;;;;;4954638;28;20529;-81
2024/03/07 09:34:25;;;;;;;11.73;4.32;;;18.20;30.80;;;;;;4954388;29;20037;-80
2024/03/07 09:36:51;;;;;;;;;;;18.10;30.80;;;;;;4955160;28;20027;-83
2024/03/07 09:39:17;;;;;;;9.57;3.70;;;18.20;31.80;;;;;;4955068;28;20261;-81
2024/03/07 09:41:43;;;;;;;10.15;3.88;;;18.40;30.60;;;;;;4958313;28;20316;-82
2024/03/07 09:44:12;;;;;;;6.53;4.45;;;19.10;30.00;;;;;;4958533;29;20031;-80
2024/03/07 09:46:39;;;;;;;7.65;4.30;;;19.40;29.70;;;;;;4952955;29;20446;-82
2024/03/07 09:49:08;;;;;;;9.50;4.03;;;19.20;29.70;;;;;;4952884;29;20031;-81
2024/03/07 09:51:35;;;;;;;12.77;5.30;;;19.30;29.70;;;;;;4954099;28;20102;-84
2024/03/07 09:54:01;;;;;;;14.77;6.43;;;19.10;29.30;;;;;;4954581;28;20393;-84
2024/03/07 09:56:37;;;;;;;7.63;4.85;;;18.40;29.50;;;;;;4954312;28;20059;-84
2024/03/07 09:59:15;;;;;;;12.05;6.07;;;18.20;29.90;;;;;;4955361;28;20051;-82
2024/03/07 10:01:45;;;;;;;13.00;6.68;;;18.70;30.00;;;;;;4954699;28;20019;-83
2024/03/07 10:04:14;;;;;;;11.20;4.72;;;18.80;29.50;;;;;;4954977;28;20027;-83
2024/03/07 10:06:46;;;;;;;12.48;4.53;;;19.10;29.60;;;;;;4953575;28;20126;-83
2024/03/07 10:09:14;;;;;;;9.35;4.22;;;19.50;29.40;;;;;;4954991;29;20067;-83
2024/03/07 10:11:43;;;;;;;13.02;5.03;;;19.60;29.00;;;;;;4955387;28;20073;-80
2024/03/07 10:14:10;;;;;;;7.55;3.55;;;19.80;29.10;;;;;;4969547;28;20061;-85
2024/03/07 10:16:36;;;;;;;3.58;2.80;;;19.30;28.70;;;;;;4955861;28;20425;-81
2024/03/07 10:19:05;;;;;;;5.93;3.17;;;18.90;29.50;;;;;;4954487;28;20031;-83
2024/03/07 10:21:36;;;;;;;5.75;2.55;;;19.30;29.20;;;;;;4954115;28;20063;-80
2024/03/07 10:24:10;;;;;;;8.40;3.22;;;19.50;29.00;;;;;;4953586;28;20046;-84
2024/03/07 10:26:38;;;;;;;7.05;2.33;;;19.40;29.40;;;;;;4953835;28;20236;-83
2024/03/07 10:29:10;;;;;;;7.55;2.47;;;19.10;29.00;;;;;;4952265;28;20453;-83
2024/03/07 10:31:38;;;;;;;6.00;2.47;;;17.70;29.60;;;;;;4949358;29;20032;-85
2024/03/07 10:34:04;;;;;;;5.25;2.38;;;15.50;30.30;;;;;;4950769;29;20023;-81
2024/03/07 10:36:31;;;;;;;4.13;1.70;;;12.90;32.50;;;;;;4942889;29;20023;-81
2024/03/07 10:39:17;;;;;;;4.15;2.10;;;11.20;34.80;;;;;;4955834;28;20023;-82
2024/03/07 10:41:49;;;;;;;7.80;2.63;;;9.80;36.20;;;;;;4956393;29;20031;-82
2024/03/07 10:44:25;;;;;;;3.78;1.90;;;8.60;37.90;;;;;;4953522;28;20098;-80
2024/03/07 10:47:02;;;;;;;5.13;2.03;;;7.80;39.20;;;;;;4949114;29;20027;-80
2024/03/07 10:49:31;;;;;;;;;;;7.20;40.30;;;;;;4935434;29;20039;-81
2024/03/07 10:52:06;;;;;;;4.45;2.65;;;6.70;40.30;;;;;;4953320;29;20335;-82
2024/03/07 10:54:49;;;;;;;5.75;2.35;;;6.40;42.60;;;;;;4949269;29;20024;-83
2024/03/07 10:57:47;;;;;;;3.15;2.28;;;6.20;43.40;;;;;;4941247;29;20030;-81
2024/03/07 11:00:29;;;;;;;4.32;2.30;;;6.10;43.20;;;;;;4945152;29;20396;-82
2024/03/07 11:02:56;;;;;;;9.20;3.08;;;5.90;43.60;;;;;;4952803;29;20031;-85
2024/03/07 11:05:29;;;;;;;6.80;2.90;;;5.90;44.30;;;;;;4953945;28;20015;-82
2024/03/07 11:07:58;;;;;;;4.50;2.42;;;5.90;44.40;;;;;;4954761;28;20043;-81
2024/03/07 11:10:24;;;;;;;6.47;3.15;;;5.70;44.70;;;;;;4959987;28;20058;-83
2024/03/07 11:12:51;;;;;;;5.00;2.73;;;5.60;45.50;;;;;;4962396;28;20031;-83
2024/03/07 11:15:22;;;;;;;7.25;3.53;;;5.60;45.60;;;;;;4957291;28;20110;-83
2024/03/07 11:17:49;;;;;;;5.43;2.88;;;5.70;45.30;;;;;;4956111;29;20129;-82
2024/03/07 11:20:25;;;;;;;4.55;3.03;;;5.60;45.50;;;;;;4956946;28;20439;-81
2024/03/07 11:22:53;;;;;;;6.00;2.40;;;5.50;46.20;;;;;;4956972;28;20038;-82
2024/03/07 11:25:21;;;;;;;4.50;2.95;;;5.50;46.10;;;;;;4957499;28;20544;-82
2024/03/07 11:27:59;;;;;;;;;;;5.40;45.90;;;;;;4957779;28;20542;-81
2024/03/07 11:30:26;;;;;;;8.55;3.13;;;5.20;45.50;;;;;;4956602;29;19921;-81
2024/03/07 11:32:53;;;;;;;8.75;3.53;;;5.00;46.20;;;;;;4956942;28;20050;-80
2024/03/07 11:35:25;;;;;;;;;;;5.00;47.70;;;;;;4972324;28;20027;-84
2024/03/07 11:37:57;;;;;;;13.43;6.47;;;5.10;47.20;;;;;;4957172;28;19941;-82
2024/03/07 11:40:24;;;;;;;12.60;5.68;;;5.10;47.40;;;;;;4956754;28;20038;-82
2024/03/07 11:42:52;;;;;;;7.28;3.88;;;5.20;47.40;;;;;;4956725;28;20023;-82
2024/03/07 11:45:24;;;;;;;6.45;2.83;;;5.30;47.20;;;;;;4956668;28;20027;-82
2024/03/07 11:47:59;;;;;;;10.27;4.38;;;5.20;47.50;;;;;;4956511;28;20079;-81
2024/03/07 11:50:29;;;;;;;5.65;2.17;;;5.40;47.60;;;;;;4951999;29;20054;-82
2024/03/07 11:52:56;;;;;;;8.15;4.18;;;5.30;46.70;;;;;;4950423;29;20143;-81
2024/03/07 11:55:24;;;;;;;11.90;3.65;;;5.10;47.30;;;;;;4956348;28;20070;-82
2024/03/07 11:57:53;;;;;;;5.50;3.00;;;5.10;47.50;;;;;;4955309;29;20393;-83
2024/03/07 12:00:20;;;;;;;9.20;3.45;;;5.10;47.40;;;;;;4956495;28;20078;-81
2024/03/07 12:02:48;;;;;;;7.80;3.65;;;5.00;47.60;;;;;;4956595;28;20086;-81
2024/03/07 12:05:16;;;;;;;4.10;2.55;;;4.90;47.30;;;;;;4954649;29;20046;-81
2024/03/07 12:07:43;;;;;;;4.22;2.92;;;4.80;47.40;;;;;;4956184;28;20047;-81
2024/03/07 12:10:10;;;;;;;3.70;2.30;;;4.60;47.80;;;;;;4955126;28;20043;-81
2024/03/07 12:12:39;;;;;;;9.52;2.90;;;4.60;47.80;;;;;;4956998;28;20433;-81
2024/03/07 12:15:20;;;;;;;4.53;2.83;;;4.60;47.90;;;;;;4956883;28;20050;-83
2024/03/07 12:17:50;;;;;;;5.95;3.15;;;4.70;48.70;;;;;;4956302;28;20145;-83
2024/03/07 12:20:33;;;;;;;10.30;3.92;;;4.80;48.50;;;;;;4955901;28;20027;-81
2024/03/07 12:23:05;;;;;;;6.88;2.72;;;4.80;48.20;;;;;;4955870;28;20023;-82
2024/03/07 12:25:32;;;;;;;8.45;3.30;;;4.80;48.40;;;;;;4955748;28;20106;-81
2024/03/07 12:28:11;;;;;;;7.28;3.47;;;4.80;48.50;;;;;;4955848;28;20039;-81
2024/03/07 12:30:46;;;;;;;8.70;2.88;;;4.90;48.20;;;;;;4953538;29;20091;-81
2024/03/07 12:33:16;;;;;;;7.20;2.42;;;4.80;48.60;;;;;;4955529;29;20019;-79
2024/03/07 12:35:49;;;;;;;6.35;2.92;;;4.90;49.30;;;;;;4955861;28;20500;-82
2024/03/07 12:38:17;;;;;;;9.80;4.72;;;5.00;49.30;;;;;;4956533;28;20358;-81
2024/03/07 12:40:43;;;;;;;6.22;2.53;;;5.10;48.70;;;;;;4955578;28;20024;-81
2024/03/07 12:43:21;;;;;;;7.90;3.92;;;5.20;48.80;;;;;;4955430;28;20062;-82
2024/03/07 12:45:51;;;;;;;4.90;2.95;;;5.10;48.30;;;;;;4956052;28;20059;-82
2024/03/07 12:48:19;;;;;;;4.88;2.72;;;5.10;48.60;;;;;;4955512;28;20019;-81
2024/03/07 12:50:53;;;;;;;6.38;3.05;;;5.10;47.90;;;;;;4954569;28;20023;-83
2024/03/07 12:53:19;;;;;;;5.13;2.35;;;5.00;48.50;;;;;;4955162;28;20047;-81